Palatka, Florida
Current Conditions -  °F | °C
As of 1:58 PM on Monday 20 Oct 2014 (Local Time) from KSGJ Reporting Station
Few Clouds Few Clouds  
Wind Chill: 80°   Ceiling: Unl
Heat Index: 82°   Visibility: 10mi
Dew Point: 66°   Wind: 13mph
Humidity: 62%   Direction: 120°ESE
Pressure: 30.02"   Gusts: NA
Location:  29.65°N, 81.64°W
Report Text: KSGJ 201758Z 12011KT 10SM FEW060 27/19 A3002 RMK AO2 SLP165 T02670189 10278 20233 58026
Loading
Personal Weather Stations






























Interactive Weather Map
Tropical Storm Tracking
New forecast layout! Learn more

10-Day Weather Forecast

Advertisements
Track Severe Weather on mobile